PWSweather.com
Personal Weather Stations
Station Observations
SARATOGA
Aldara Apartments, Saratoga Springs, UT 84045

Aldara ApartmentsSaratoga Springs, UT 84045

Lat: 40.384864, Lon: -111.913644

Elevation: 4531

Station Type: VantagePro 2

Latest ConditionsUpdated 3:21:07 AM MDT Monday, May 25, 2015
Currently Today's Max Today's Min Today's Average
Temperature 52.3°F11.3°C 53.5°F11.9°C 51.7°F10.9°C 52.0°F11.1°C
Dew Point 48.9°F9.4°C 48.9°F9.4°C 47.1°F8.4°C 47.8°F8.8°C
Winds Calm Calm 11.0 mph N17.7 kmh N - 1.5 mph 2.4 kmh
Wind Gusts 1.0 mph1.6 kmh 14.0 mph22.5 kmh - -
Humidity 88% 88% 81% 85%
Pressure 29.58 in1001.7 mb 29.59 in1002.0 mb 29.57 in1001.4 mb -
Hour Temp Dew Point Humidity Winds Wind Gusts Pressure Precip Precip Rate Daily Precip Total
03:21 AM 52.3°F11.3°C 48.9°F9.4°C 88% Calm Calm 1.0 mph1.6 kmh 29.58 in1001.7 mb 0.00 in0.0 mm 0.00 in0.0 mm 0.10 in2.5 mm
03:20 AM 52.3°F11.3°C 48.9°F9.4°C 88% Calm Calm -- 29.58 in1001.7 mb 0.00 in0.0 mm 0.00 in0.0 mm 0.10 in2.5 mm
03:19 AM 52.2°F11.2°C 48.8°F9.3°C 88% Calm Calm -- 29.58 in1001.7 mb 0.00 in0.0 mm 0.00 in0.0 mm 0.10 in2.5 mm
03:18 AM 52.2°F11.2°C 48.8°F9.3°C 88% Calm Calm -- 29.58 in1001.7 mb 0.00 in0.0 mm 0.00 in0.0 mm 0.10 in2.5 mm
03:17 AM 52.1°F11.2°C 48.7°F9.3°C 88% Calm Calm -- 29.58 in1001.7 mb 0.00 in0.0 mm 0.00 in0.0 mm 0.10 in2.5 mm
03:16 AM 52.1°F11.2°C 48.7°F9.3°C 88% Calm Calm -- 29.58 in1001.7 mb 0.00 in0.0 mm 0.00 in0.0 mm 0.10 in2.5 mm
03:15 AM 52.0°F11.1°C 48.6°F9.2°C 88% Calm Calm -- 29.58 in1001.7 mb 0.00 in0.0 mm 0.00 in0.0 mm 0.10 in2.5 mm
03:14 AM 52.0°F11.1°C 48.6°F9.2°C 88% Calm Calm -- 29.58 in1001.7 mb 0.00 in0.0 mm 0.00 in0.0 mm 0.10 in2.5 mm
03:13 AM 52.0°F11.1°C 48.6°F9.2°C 88% Calm Calm -- 29.58 in1001.7 mb 0.00 in0.0 mm 0.00 in0.0 mm 0.10 in2.5 mm
03:12 AM 52.0°F11.1°C 48.6°F9.2°C 88% Calm Calm -- 29.58 in1001.7 mb 0.00 in0.0 mm 0.00 in0.0 mm 0.10 in2.5 mm
03:11 AM 52.0°F11.1°C 48.6°F9.2°C 88% Calm Calm -- 29.58 in1001.7 mb 0.00 in0.0 mm 0.00 in0.0 mm 0.10 in2.5 mm
03:10 AM 52.0°F11.1°C 48.6°F9.2°C 88% Calm Calm -- 29.58 in1001.7 mb 0.00 in0.0 mm 0.00 in0.0 mm 0.10 in2.5 mm
03:09 AM 52.0°F11.1°C 48.3°F9.1°C 87% Calm Calm -- 29.58 in1001.7 mb 0.00 in0.0 mm 0.00 in0.0 mm 0.10 in2.5 mm
03:08 AM 52.0°F11.1°C 48.3°F9.1°C 87% Calm Calm -- 29.58 in1001.7 mb 0.00 in0.0 mm 0.00 in0.0 mm 0.10 in2.5 mm
03:07 AM 52.0°F11.1°C 48.6°F9.2°C 88% Calm Calm -- 29.58 in1001.7 mb 0.00 in0.0 mm 0.00 in0.0 mm 0.10 in2.5 mm
03:06 AM 52.0°F11.1°C 48.6°F9.2°C 88% Calm Calm -- 29.58 in1001.7 mb 0.00 in0.0 mm 0.00 in0.0 mm 0.10 in2.5 mm
03:05 AM 52.0°F11.1°C 48.6°F9.2°C 88% Calm Calm -- 29.58 in1001.7 mb 0.00 in0.0 mm 0.00 in0.0 mm 0.10 in2.5 mm
03:04 AM 52.0°F11.1°C 48.6°F9.2°C 88% Calm Calm -- 29.58 in1001.7 mb 0.00 in0.0 mm 0.00 in0.0 mm 0.10 in2.5 mm
03:03 AM 52.0°F11.1°C 48.6°F9.2°C 88% Calm Calm -- 29.58 in1001.7 mb 0.00 in0.0 mm 0.00 in0.0 mm 0.10 in2.5 mm
03:02 AM 52.0°F11.1°C 48.6°F9.2°C 88% Calm Calm -- 29.58 in1001.7 mb 0.00 in0.0 mm 0.00 in0.0 mm 0.10 in2.5 mm
03:01 AM 52.0°F11.1°C 48.6°F9.2°C 88% Calm Calm -- 29.58 in1001.7 mb 0.00 in0.0 mm 0.00 in0.0 mm 0.10 in2.5 mm
02:59 AM 52.0°F11.1°C 48.6°F9.2°C 88% Calm Calm -- 29.58 in1001.7 mb 0.01 in0.3 mm 0.00 in0.0 mm 0.10 in2.5 mm
02:58 AM 52.0°F11.1°C 48.6°F9.2°C 88% Calm Calm -- 29.58 in1001.7 mb 0.01 in0.3 mm 0.00 in0.0 mm 0.10 in2.5 mm
02:57 AM 52.0°F11.1°C 48.6°F9.2°C 88% Calm Calm -- 29.58 in1001.7 mb 0.01 in0.3 mm 0.00 in0.0 mm 0.10 in2.5 mm
02:56 AM 52.0°F11.1°C 48.6°F9.2°C 88% Calm Calm -- 29.58 in1001.7 mb 0.01 in0.3 mm 0.00 in0.0 mm 0.10 in2.5 mm
02:55 AM 52.0°F11.1°C 48.6°F9.2°C 88% Calm Calm -- 29.58 in1001.7 mb 0.01 in0.3 mm 0.00 in0.0 mm 0.10 in2.5 mm
02:54 AM 52.0°F11.1°C 48.6°F9.2°C 88% Calm Calm -- 29.58 in1001.7 mb 0.01 in0.3 mm 0.00 in0.0 mm 0.10 in2.5 mm
02:53 AM 51.9°F11.1°C 48.5°F9.2°C 88% Calm Calm -- 29.58 in1001.7 mb 0.01 in0.3 mm 0.00 in0.0 mm 0.10 in2.5 mm
02:52 AM 51.9°F11.1°C 48.2°F9.0°C 87% Calm Calm -- 29.58 in1001.7 mb 0.01 in0.3 mm 0.00 in0.0 mm 0.10 in2.5 mm
02:51 AM 51.9°F11.1°C 48.2°F9.0°C 87% Calm Calm -- 29.58 in1001.7 mb 0.01 in0.3 mm 0.00 in0.0 mm 0.10 in2.5 mm
02:50 AM 52.0°F11.1°C 48.3°F9.1°C 87% Calm Calm -- 29.58 in1001.7 mb 0.01 in0.3 mm 0.00 in0.0 mm 0.10 in2.5 mm
02:49 AM 51.9°F11.1°C 48.2°F9.0°C 87% Calm Calm -- 29.58 in1001.7 mb 0.01 in0.3 mm 0.00 in0.0 mm 0.10 in2.5 mm
02:48 AM 52.0°F11.1°C 48.6°F9.2°C 88% Calm Calm -- 29.58 in1001.7 mb 0.01 in0.3 mm 0.00 in0.0 mm 0.10 in2.5 mm
02:47 AM 51.9°F11.1°C 48.5°F9.2°C 88% Calm Calm -- 29.57 in1001.4 mb 0.01 in0.3 mm 0.00 in0.0 mm 0.10 in2.5 mm
02:46 AM 52.0°F11.1°C 48.6°F9.2°C 88% Calm Calm -- 29.58 in1001.7 mb 0.01 in0.3 mm 0.00 in0.0 mm 0.10 in2.5 mm
02:45 AM 52.0°F11.1°C 48.6°F9.2°C 88% Calm Calm -- 29.58 in1001.7 mb 0.01 in0.3 mm 0.00 in0.0 mm 0.10 in2.5 mm
02:44 AM 52.0°F11.1°C 48.6°F9.2°C 88% Calm Calm -- 29.57 in1001.4 mb 0.01 in0.3 mm 0.00 in0.0 mm 0.10 in2.5 mm
02:43 AM 51.9°F11.1°C 48.5°F9.2°C 88% Calm Calm -- 29.57 in1001.4 mb 0.01 in0.3 mm 0.00 in0.0 mm 0.10 in2.5 mm
02:42 AM 52.0°F11.1°C 48.3°F9.1°C 87% Calm Calm -- 29.57 in1001.4 mb 0.01 in0.3 mm 0.00 in0.0 mm 0.10 in2.5 mm
02:41 AM 52.0°F11.1°C 48.3°F9.1°C 87% Calm Calm -- 29.57 in1001.4 mb 0.01 in0.3 mm 0.00 in0.0 mm 0.10 in2.5 mm
02:40 AM 51.9°F11.1°C 48.2°F9.0°C 87% Calm Calm -- 29.58 in1001.7 mb 0.01 in0.3 mm 0.00 in0.0 mm 0.10 in2.5 mm
02:39 AM 51.9°F11.1°C 48.2°F9.0°C 87% Calm Calm -- 29.58 in1001.7 mb 0.01 in0.3 mm 0.00 in0.0 mm 0.10 in2.5 mm
02:38 AM 51.9°F11.1°C 48.2°F9.0°C 87% Calm Calm -- 29.58 in1001.7 mb 0.01 in0.3 mm 0.00 in0.0 mm 0.10 in2.5 mm
02:37 AM 51.9°F11.1°C 48.2°F9.0°C 87% Calm Calm -- 29.58 in1001.7 mb 0.01 in0.3 mm 0.00 in0.0 mm 0.10 in2.5 mm
02:36 AM 51.9°F11.1°C 48.2°F9.0°C 87% Calm Calm -- 29.58 in1001.7 mb 0.01 in0.3 mm 0.00 in0.0 mm 0.10 in2.5 mm
02:35 AM 51.9°F11.1°C 48.2°F9.0°C 87% Calm Calm -- 29.58 in1001.7 mb 0.01 in0.3 mm 0.00 in0.0 mm 0.10 in2.5 mm
02:34 AM 51.9°F11.1°C 48.2°F9.0°C 87% Calm Calm -- 29.57 in1001.4 mb 0.01 in0.3 mm 0.00 in0.0 mm 0.10 in2.5 mm
02:33 AM 51.8°F11.0°C 48.1°F8.9°C 87% Calm Calm 2.0 mph3.2 kmh 29.58 in1001.7 mb 0.01 in0.3 mm 0.00 in0.0 mm 0.10 in2.5 mm
02:32 AM 51.8°F11.0°C 48.1°F8.9°C 87% Calm Calm -- 29.58 in1001.7 mb 0.01 in0.3 mm 0.00 in0.0 mm 0.10 in2.5 mm
02:31 AM 51.8°F11.0°C 48.1°F8.9°C 87% Calm Calm -- 29.58 in1001.7 mb 0.01 in0.3 mm 0.00 in0.0 mm 0.10 in2.5 mm
02:29 AM 51.8°F11.0°C 48.1°F8.9°C 87% Calm Calm -- 29.58 in1001.7 mb 0.01 in0.3 mm 0.00 in0.0 mm 0.10 in2.5 mm
02:28 AM 51.8°F11.0°C 48.1°F8.9°C 87% Calm Calm 2.0 mph3.2 kmh 29.58 in1001.7 mb 0.01 in0.3 mm 0.00 in0.0 mm 0.10 in2.5 mm
02:27 AM 51.8°F11.0°C 48.1°F8.9°C 87% Calm Calm 2.0 mph3.2 kmh 29.58 in1001.7 mb 0.01 in0.3 mm 0.00 in0.0 mm 0.10 in2.5 mm
02:26 AM 51.8°F11.0°C 48.1°F8.9°C 87% Calm Calm 1.0 mph1.6 kmh 29.58 in1001.7 mb 0.01 in0.3 mm 0.00 in0.0 mm 0.10 in2.5 mm
02:25 AM 51.8°F11.0°C 48.1°F8.9°C 87% Calm Calm 1.0 mph1.6 kmh 29.58 in1001.7 mb 0.01 in0.3 mm 0.00 in0.0 mm 0.10 in2.5 mm
02:24 AM 51.8°F11.0°C 47.8°F8.8°C 86% Calm Calm 2.0 mph3.2 kmh 29.58 in1001.7 mb 0.01 in0.3 mm 0.00 in0.0 mm 0.10 in2.5 mm
02:23 AM 51.8°F11.0°C 47.8°F8.8°C 86% Calm Calm 3.0 mph4.8 kmh 29.58 in1001.7 mb 0.01 in0.3 mm 0.00 in0.0 mm 0.10 in2.5 mm
02:22 AM 51.8°F11.0°C 47.8°F8.8°C 86% Calm Calm 3.0 mph4.8 kmh 29.58 in1001.7 mb 0.01 in0.3 mm 0.00 in0.0 mm 0.10 in2.5 mm
02:21 AM 51.8°F11.0°C 47.8°F8.8°C 86% Calm Calm 3.0 mph4.8 kmh 29.58 in1001.7 mb 0.01 in0.3 mm 0.00 in0.0 mm 0.10 in2.5 mm
02:20 AM 51.9°F11.1°C 47.9°F8.8°C 86% 2.0 mph WSW3.2 kmh WSW 3.0 mph4.8 kmh 29.58 in1001.7 mb 0.01 in0.3 mm 0.00 in0.0 mm 0.10 in2.5 mm
02:19 AM 51.9°F11.1°C 47.9°F8.8°C 86% Calm Calm 3.0 mph4.8 kmh 29.58 in1001.7 mb 0.01 in0.3 mm 0.00 in0.0 mm 0.10 in2.5 mm
02:18 AM 51.9°F11.1°C 47.9°F8.8°C 86% 1.0 mph WSW1.6 kmh WSW 3.0 mph4.8 kmh 29.58 in1001.7 mb 0.01 in0.3 mm 0.00 in0.0 mm 0.10 in2.5 mm
02:17 AM 51.9°F11.1°C 47.9°F8.8°C 86% 2.0 mph WSW3.2 kmh WSW 2.0 mph3.2 kmh 29.58 in1001.7 mb 0.01 in0.3 mm 0.00 in0.0 mm 0.10 in2.5 mm
02:16 AM 52.0°F11.1°C 48.0°F8.9°C 86% Calm Calm 2.0 mph3.2 kmh 29.58 in1001.7 mb 0.01 in0.3 mm 0.00 in0.0 mm 0.10 in2.5 mm
02:15 AM 52.0°F11.1°C 48.0°F8.9°C 86% Calm Calm 1.0 mph1.6 kmh 29.58 in1001.7 mb 0.01 in0.3 mm 0.00 in0.0 mm 0.10 in2.5 mm
02:14 AM 52.0°F11.1°C 48.0°F8.9°C 86% 1.0 mph WSW1.6 kmh WSW 1.0 mph1.6 kmh 29.58 in1001.7 mb 0.01 in0.3 mm 0.00 in0.0 mm 0.10 in2.5 mm
02:13 AM 51.9°F11.1°C 47.9°F8.8°C 86% Calm Calm -- 29.57 in1001.4 mb 0.01 in0.3 mm 0.00 in0.0 mm 0.10 in2.5 mm
02:12 AM 51.9°F11.1°C 47.9°F8.8°C 86% Calm Calm -- 29.58 in1001.7 mb 0.01 in0.3 mm 0.00 in0.0 mm 0.10 in2.5 mm
02:11 AM 51.9°F11.1°C 47.9°F8.8°C 86% Calm Calm 1.0 mph1.6 kmh 29.57 in1001.4 mb 0.01 in0.3 mm 0.00 in0.0 mm 0.10 in2.5 mm
02:10 AM 51.9°F11.1°C 47.9°F8.8°C 86% Calm Calm 1.0 mph1.6 kmh 29.57 in1001.4 mb 0.01 in0.3 mm 0.00 in0.0 mm 0.10 in2.5 mm
02:09 AM 51.9°F11.1°C 47.9°F8.8°C 86% Calm Calm -- 29.57 in1001.4 mb 0.01 in0.3 mm 0.00 in0.0 mm 0.10 in2.5 mm
02:08 AM 51.9°F11.1°C 47.9°F8.8°C 86% Calm Calm -- 29.57 in1001.4 mb 0.01 in0.3 mm 0.00 in0.0 mm 0.10 in2.5 mm
02:07 AM 51.9°F11.1°C 47.9°F8.8°C 86% Calm Calm -- 29.57 in1001.4 mb 0.01 in0.3 mm 0.00 in0.0 mm 0.10 in2.5 mm
02:06 AM 51.9°F11.1°C 47.9°F8.8°C 86% Calm Calm -- 29.57 in1001.4 mb 0.01 in0.3 mm 0.00 in0.0 mm 0.10 in2.5 mm
02:05 AM 51.9°F11.1°C 47.9°F8.8°C 86% Calm Calm -- 29.57 in1001.4 mb 0.01 in0.3 mm 0.00 in0.0 mm 0.10 in2.5 mm
02:04 AM 51.9°F11.1°C 47.9°F8.8°C 86% Calm Calm -- 29.57 in1001.4 mb 0.01 in0.3 mm 0.00 in0.0 mm 0.10 in2.5 mm
02:03 AM 51.9°F11.1°C 47.9°F8.8°C 86% Calm Calm -- 29.57 in1001.4 mb 0.01 in0.3 mm 0.00 in0.0 mm 0.10 in2.5 mm
02:02 AM 51.9°F11.1°C 47.9°F8.8°C 86% Calm Calm -- 29.57 in1001.4 mb 0.01 in0.3 mm 0.00 in0.0 mm 0.10 in2.5 mm
02:01 AM 51.9°F11.1°C 47.9°F8.8°C 86% Calm Calm -- 29.57 in1001.4 mb 0.01 in0.3 mm 0.00 in0.0 mm 0.10 in2.5 mm
01:59 AM 51.9°F11.1°C 47.5°F8.6°C 85% Calm Calm -- 29.57 in1001.4 mb 0.05 in1.3 mm 0.00 in0.0 mm 0.10 in2.5 mm
01:58 AM 51.8°F11.0°C 47.4°F8.6°C 85% Calm Calm 1.0 mph1.6 kmh 29.57 in1001.4 mb 0.05 in1.3 mm 0.00 in0.0 mm 0.10 in2.5 mm
01:57 AM 51.8°F11.0°C 47.4°F8.6°C 85% Calm Calm -- 29.57 in1001.4 mb 0.05 in1.3 mm 0.00 in0.0 mm 0.10 in2.5 mm
01:56 AM 51.8°F11.0°C 47.4°F8.6°C 85% Calm Calm -- 29.57 in1001.4 mb 0.05 in1.3 mm 0.00 in0.0 mm 0.10 in2.5 mm
01:55 AM 51.8°F11.0°C 47.1°F8.4°C 84% Calm Calm -- 29.57 in1001.4 mb 0.05 in1.3 mm 0.00 in0.0 mm 0.10 in2.5 mm
01:54 AM 51.8°F11.0°C 47.1°F8.4°C 84% Calm Calm -- 29.57 in1001.4 mb 0.05 in1.3 mm 0.00 in0.0 mm 0.10 in2.5 mm
01:53 AM 51.8°F11.0°C 47.1°F8.4°C 84% Calm Calm -- 29.57 in1001.4 mb 0.05 in1.3 mm 0.00 in0.0 mm 0.10 in2.5 mm
01:52 AM 51.8°F11.0°C 47.1°F8.4°C 84% Calm Calm -- 29.58 in1001.7 mb 0.05 in1.3 mm 0.00 in0.0 mm 0.10 in2.5 mm
01:51 AM 51.9°F11.1°C 47.2°F8.4°C 84% Calm Calm -- 29.57 in1001.4 mb 0.05 in1.3 mm 0.00 in0.0 mm 0.10 in2.5 mm
01:50 AM 51.9°F11.1°C 47.2°F8.4°C 84% Calm Calm -- 29.57 in1001.4 mb 0.05 in1.3 mm 0.00 in0.0 mm 0.10 in2.5 mm
01:49 AM 51.9°F11.1°C 47.5°F8.6°C 85% Calm Calm -- 29.57 in1001.4 mb 0.05 in1.3 mm 0.00 in0.0 mm 0.10 in2.5 mm
01:48 AM 52.0°F11.1°C 47.6°F8.7°C 85% Calm Calm 2.0 mph3.2 kmh 29.58 in1001.7 mb 0.05 in1.3 mm 0.00 in0.0 mm 0.10 in2.5 mm
01:47 AM 52.0°F11.1°C 47.3°F8.5°C 84% Calm Calm 2.0 mph3.2 kmh 29.57 in1001.4 mb 0.05 in1.3 mm 0.00 in0.0 mm 0.10 in2.5 mm
01:46 AM 51.9°F11.1°C 47.2°F8.4°C 84% 1.0 mph WSW1.6 kmh WSW 2.0 mph3.2 kmh 29.58 in1001.7 mb 0.05 in1.3 mm 0.00 in0.0 mm 0.10 in2.5 mm
01:45 AM 51.9°F11.1°C 47.2°F8.4°C 84% Calm Calm -- 29.58 in1001.7 mb 0.05 in1.3 mm 0.00 in0.0 mm 0.10 in2.5 mm
01:44 AM 51.9°F11.1°C 47.2°F8.4°C 84% Calm Calm -- 29.57 in1001.4 mb 0.05 in1.3 mm 0.00 in0.0 mm 0.10 in2.5 mm
01:43 AM 51.9°F11.1°C 47.2°F8.4°C 84% Calm Calm -- 29.57 in1001.4 mb 0.05 in1.3 mm 0.00 in0.0 mm 0.10 in2.5 mm
01:42 AM 51.9°F11.1°C 47.2°F8.4°C 84% Calm Calm -- 29.57 in1001.4 mb 0.05 in1.3 mm 0.00 in0.0 mm 0.10 in2.5 mm
01:41 AM 51.9°F11.1°C 47.2°F8.4°C 84% Calm Calm -- 29.57 in1001.4 mb 0.05 in1.3 mm 0.00 in0.0 mm 0.10 in2.5 mm
01:40 AM 52.0°F11.1°C 47.3°F8.5°C 84% Calm Calm -- 29.57 in1001.4 mb 0.05 in1.3 mm 0.00 in0.0 mm 0.10 in2.5 mm
01:39 AM 52.0°F11.1°C 47.3°F8.5°C 84% Calm Calm -- 29.57 in1001.4 mb 0.05 in1.3 mm 0.00 in0.0 mm 0.10 in2.5 mm
01:38 AM 52.0°F11.1°C 47.3°F8.5°C 84% Calm Calm -- 29.57 in1001.4 mb 0.05 in1.3 mm 0.00 in0.0 mm 0.10 in2.5 mm
01:37 AM 52.0°F11.1°C 47.3°F8.5°C 84% Calm Calm -- 29.57 in1001.4 mb 0.05 in1.3 mm 0.00 in0.0 mm 0.10 in2.5 mm
01:36 AM 52.0°F11.1°C 47.3°F8.5°C 84% Calm Calm -- 29.58 in1001.7 mb 0.05 in1.3 mm 0.00 in0.0 mm 0.10 in2.5 mm
01:35 AM 52.0°F11.1°C 47.3°F8.5°C 84% Calm Calm -- 29.58 in1001.7 mb 0.05 in1.3 mm 0.60 in15.2 mm 0.10 in2.5 mm
01:34 AM 52.1°F11.2°C 47.4°F8.6°C 84% Calm Calm -- 29.58 in1001.7 mb 0.04 in1.0 mm 0.00 in0.0 mm 0.09 in2.3 mm
01:33 AM 52.1°F11.2°C 47.4°F8.6°C 84% Calm Calm -- 29.58 in1001.7 mb 0.04 in1.0 mm 0.00 in0.0 mm 0.09 in2.3 mm
01:32 AM 52.1°F11.2°C 47.4°F8.6°C 84% Calm Calm -- 29.58 in1001.7 mb 0.04 in1.0 mm 0.00 in0.0 mm 0.09 in2.3 mm
01:31 AM 52.1°F11.2°C 47.4°F8.6°C 84% Calm Calm -- 29.58 in1001.7 mb 0.04 in1.0 mm 0.00 in0.0 mm 0.09 in2.3 mm
01:30 AM 52.1°F11.2°C 47.4°F8.6°C 84% Calm Calm -- 29.57 in1001.4 mb 0.04 in1.0 mm 0.00 in0.0 mm 0.09 in2.3 mm
01:29 AM 52.1°F11.2°C 47.4°F8.6°C 84% Calm Calm -- 29.57 in1001.4 mb 0.08 in2.0 mm 0.00 in0.0 mm 0.09 in2.3 mm
01:28 AM 52.1°F11.2°C 47.4°F8.6°C 84% Calm Calm -- 29.58 in1001.7 mb 0.08 in2.0 mm 0.00 in0.0 mm 0.09 in2.3 mm
01:27 AM 52.1°F11.2°C 47.4°F8.6°C 84% Calm Calm -- 29.58 in1001.7 mb 0.08 in2.0 mm 0.00 in0.0 mm 0.09 in2.3 mm
01:26 AM 52.1°F11.2°C 47.4°F8.6°C 84% Calm Calm -- 29.58 in1001.7 mb 0.08 in2.0 mm 0.00 in0.0 mm 0.09 in2.3 mm
01:25 AM 52.1°F11.2°C 47.4°F8.6°C 84% Calm Calm -- 29.58 in1001.7 mb 0.08 in2.0 mm 0.00 in0.0 mm 0.09 in2.3 mm
01:24 AM 52.1°F11.2°C 47.4°F8.6°C 84% Calm Calm -- 29.57 in1001.4 mb 0.08 in2.0 mm 0.00 in0.0 mm 0.09 in2.3 mm
01:23 AM 52.1°F11.2°C 47.4°F8.6°C 84% Calm Calm -- 29.58 in1001.7 mb 0.08 in2.0 mm 0.00 in0.0 mm 0.09 in2.3 mm
01:22 AM 52.1°F11.2°C 47.4°F8.6°C 84% Calm Calm -- 29.58 in1001.7 mb 0.08 in2.0 mm 0.00 in0.0 mm 0.09 in2.3 mm
01:21 AM 52.1°F11.2°C 47.4°F8.6°C 84% Calm Calm -- 29.58 in1001.7 mb 0.08 in2.0 mm 0.00 in0.0 mm 0.09 in2.3 mm
01:20 AM 52.0°F11.1°C 47.3°F8.5°C 84% Calm Calm -- 29.58 in1001.7 mb 0.08 in2.0 mm 0.00 in0.0 mm 0.09 in2.3 mm
01:19 AM 52.0°F11.1°C 47.3°F8.5°C 84% Calm Calm -- 29.58 in1001.7 mb 0.08 in2.0 mm 0.00 in0.0 mm 0.09 in2.3 mm
01:18 AM 52.0°F11.1°C 47.3°F8.5°C 84% Calm Calm -- 29.58 in1001.7 mb 0.08 in2.0 mm 0.00 in0.0 mm 0.09 in2.3 mm
01:17 AM 52.0°F11.1°C 47.3°F8.5°C 84% Calm Calm -- 29.58 in1001.7 mb 0.08 in2.0 mm 0.00 in0.0 mm 0.09 in2.3 mm
01:16 AM 51.9°F11.1°C 47.2°F8.4°C 84% Calm Calm -- 29.58 in1001.7 mb 0.08 in2.0 mm 0.00 in0.0 mm 0.09 in2.3 mm
01:15 AM 51.9°F11.1°C 47.2°F8.4°C 84% Calm Calm -- 29.58 in1001.7 mb 0.08 in2.0 mm 0.00 in0.0 mm 0.09 in2.3 mm
01:14 AM 51.9°F11.1°C 47.2°F8.4°C 84% Calm Calm -- 29.58 in1001.7 mb 0.08 in2.0 mm 0.00 in0.0 mm 0.09 in2.3 mm
01:13 AM 51.9°F11.1°C 47.2°F8.4°C 84% Calm Calm -- 29.58 in1001.7 mb 0.08 in2.0 mm 0.00 in0.0 mm 0.09 in2.3 mm
01:12 AM 51.9°F11.1°C 47.2°F8.4°C 84% Calm Calm -- 29.58 in1001.7 mb 0.08 in2.0 mm 0.00 in0.0 mm 0.09 in2.3 mm
01:11 AM 51.9°F11.1°C 47.5°F8.6°C 85% Calm Calm -- 29.58 in1001.7 mb 0.08 in2.0 mm 0.00 in0.0 mm 0.09 in2.3 mm
01:10 AM 51.9°F11.1°C 47.5°F8.6°C 85% Calm Calm 1.0 mph1.6 kmh 29.58 in1001.7 mb 0.08 in2.0 mm 0.00 in0.0 mm 0.09 in2.3 mm
01:09 AM 51.9°F11.1°C 47.5°F8.6°C 85% Calm Calm 4.0 mph6.4 kmh 29.58 in1001.7 mb 0.08 in2.0 mm 0.00 in0.0 mm 0.09 in2.3 mm
01:08 AM 51.9°F11.1°C 47.5°F8.6°C 85% 2.0 mph WSW3.2 kmh WSW 4.0 mph6.4 kmh 29.59 in1002.0 mb 0.08 in2.0 mm 0.00 in0.0 mm 0.09 in2.3 mm
01:07 AM 52.0°F11.1°C 47.6°F8.7°C 85% Calm Calm 1.0 mph1.6 kmh 29.58 in1001.7 mb 0.08 in2.0 mm 0.00 in0.0 mm 0.09 in2.3 mm
01:06 AM 52.0°F11.1°C 47.6°F8.7°C 85% Calm Calm 3.0 mph4.8 kmh 29.59 in1002.0 mb 0.08 in2.0 mm 0.00 in0.0 mm 0.09 in2.3 mm
01:05 AM 52.0°F11.1°C 47.6°F8.7°C 85% 3.0 mph WSW4.8 kmh WSW 3.0 mph4.8 kmh 29.58 in1001.7 mb 0.08 in2.0 mm 0.00 in0.0 mm 0.09 in2.3 mm
01:04 AM 52.0°F11.1°C 47.6°F8.7°C 85% Calm Calm 2.0 mph3.2 kmh 29.59 in1002.0 mb 0.08 in2.0 mm 0.00 in0.0 mm 0.09 in2.3 mm
01:03 AM 52.0°F11.1°C 47.6°F8.7°C 85% 1.0 mph WSW1.6 kmh WSW 5.0 mph8.0 kmh 29.59 in1002.0 mb 0.08 in2.0 mm 0.00 in0.0 mm 0.09 in2.3 mm
01:02 AM 52.0°F11.1°C 47.6°F8.7°C 85% 3.0 mph WSW4.8 kmh WSW 6.0 mph9.7 kmh 29.59 in1002.0 mb 0.08 in2.0 mm 0.00 in0.0 mm 0.09 in2.3 mm
01:01 AM 51.9°F11.1°C 47.5°F8.6°C 85% 5.0 mph WSW8.0 kmh WSW 6.0 mph9.7 kmh 29.59 in1002.0 mb 0.08 in2.0 mm 0.00 in0.0 mm 0.09 in2.3 mm
01:00 AM 51.9°F11.1°C 47.5°F8.6°C 85% Calm Calm -- 29.58 in1001.7 mb 0.08 in2.0 mm 0.00 in0.0 mm 0.09 in2.3 mm
12:59 AM 51.9°F11.1°C 47.5°F8.6°C 85% Calm Calm -- 29.58 in1001.7 mb 0.08 in2.0 mm 0.00 in0.0 mm 0.09 in2.3 mm
12:58 AM 51.9°F11.1°C 47.5°F8.6°C 85% Calm Calm -- 29.58 in1001.7 mb 0.08 in2.0 mm 0.00 in0.0 mm 0.09 in2.3 mm
12:57 AM 51.9°F11.1°C 47.5°F8.6°C 85% Calm Calm -- 29.58 in1001.7 mb 0.08 in2.0 mm 0.00 in0.0 mm 0.09 in2.3 mm
12:56 AM 51.9°F11.1°C 47.5°F8.6°C 85% Calm Calm 2.0 mph3.2 kmh 29.58 in1001.7 mb 0.08 in2.0 mm 0.00 in0.0 mm 0.09 in2.3 mm
12:55 AM 51.8°F11.0°C 47.4°F8.6°C 85% Calm Calm 3.0 mph4.8 kmh 29.58 in1001.7 mb 0.08 in2.0 mm 0.00 in0.0 mm 0.09 in2.3 mm
12:54 AM 51.8°F11.0°C 47.4°F8.6°C 85% 1.0 mph NNE1.6 kmh NNE 3.0 mph4.8 kmh 29.58 in1001.7 mb 0.08 in2.0 mm 0.00 in0.0 mm 0.09 in2.3 mm
12:53 AM 51.8°F11.0°C 47.4°F8.6°C 85% 2.0 mph NNE3.2 kmh NNE 3.0 mph4.8 kmh 29.58 in1001.7 mb 0.08 in2.0 mm 0.00 in0.0 mm 0.09 in2.3 mm
12:52 AM 51.8°F11.0°C 47.4°F8.6°C 85% 3.0 mph NNE4.8 kmh NNE 3.0 mph4.8 kmh 29.58 in1001.7 mb 0.08 in2.0 mm 0.00 in0.0 mm 0.09 in2.3 mm
12:51 AM 51.8°F11.0°C 47.4°F8.6°C 85% 2.0 mph NNE3.2 kmh NNE 3.0 mph4.8 kmh 29.58 in1001.7 mb 0.08 in2.0 mm 0.00 in0.0 mm 0.09 in2.3 mm
12:50 AM 51.8°F11.0°C 47.4°F8.6°C 85% 2.0 mph NNE3.2 kmh NNE 2.0 mph3.2 kmh 29.58 in1001.7 mb 0.08 in2.0 mm 0.00 in0.0 mm 0.09 in2.3 mm
12:49 AM 51.8°F11.0°C 47.4°F8.6°C 85% Calm Calm 4.0 mph6.4 kmh 29.58 in1001.7 mb 0.08 in2.0 mm 0.00 in0.0 mm 0.09 in2.3 mm
12:48 AM 51.8°F11.0°C 47.8°F8.8°C 86% 3.0 mph NNE4.8 kmh NNE 4.0 mph6.4 kmh 29.58 in1001.7 mb 0.08 in2.0 mm 0.00 in0.0 mm 0.09 in2.3 mm
12:47 AM 51.8°F11.0°C 47.8°F8.8°C 86% Calm Calm 4.0 mph6.4 kmh 29.58 in1001.7 mb 0.08 in2.0 mm 0.00 in0.0 mm 0.09 in2.3 mm
12:46 AM 51.8°F11.0°C 47.8°F8.8°C 86% 3.0 mph NNE4.8 kmh NNE 4.0 mph6.4 kmh 29.58 in1001.7 mb 0.08 in2.0 mm 0.00 in0.0 mm 0.09 in2.3 mm
12:45 AM 51.8°F11.0°C 47.8°F8.8°C 86% Calm Calm 4.0 mph6.4 kmh 29.58 in1001.7 mb 0.08 in2.0 mm 0.60 in15.2 mm 0.09 in2.3 mm
12:44 AM 51.7°F10.9°C 47.3°F8.5°C 85% 1.0 mph NNE1.6 kmh NNE 3.0 mph4.8 kmh 29.58 in1001.7 mb 0.07 in1.8 mm 0.00 in0.0 mm 0.08 in2.0 mm
12:43 AM 51.8°F11.0°C 47.4°F8.6°C 85% 2.0 mph NNE3.2 kmh NNE 3.0 mph4.8 kmh 29.58 in1001.7 mb 0.07 in1.8 mm 0.00 in0.0 mm 0.08 in2.0 mm
12:42 AM 51.8°F11.0°C 47.8°F8.8°C 86% 3.0 mph NNE4.8 kmh NNE 4.0 mph6.4 kmh 29.58 in1001.7 mb 0.07 in1.8 mm 0.00 in0.0 mm 0.08 in2.0 mm
12:41 AM 51.8°F11.0°C 47.8°F8.8°C 86% 3.0 mph NNE4.8 kmh NNE 5.0 mph8.0 kmh 29.58 in1001.7 mb 0.07 in1.8 mm 0.00 in0.0 mm 0.08 in2.0 mm
12:40 AM 51.8°F11.0°C 47.8°F8.8°C 86% 3.0 mph NNE4.8 kmh NNE 4.0 mph6.4 kmh 29.58 in1001.7 mb 0.07 in1.8 mm 0.00 in0.0 mm 0.08 in2.0 mm
12:39 AM 51.8°F11.0°C 47.8°F8.8°C 86% 3.0 mph NNE4.8 kmh NNE 5.0 mph8.0 kmh 29.58 in1001.7 mb 0.07 in1.8 mm 0.00 in0.0 mm 0.08 in2.0 mm
12:38 AM 51.8°F11.0°C 47.4°F8.6°C 85% 4.0 mph NNE6.4 kmh NNE 5.0 mph8.0 kmh 29.58 in1001.7 mb 0.07 in1.8 mm 0.00 in0.0 mm 0.08 in2.0 mm
12:37 AM 51.8°F11.0°C 47.4°F8.6°C 85% 4.0 mph NE6.4 kmh NE 8.0 mph12.9 kmh 29.58 in1001.7 mb 0.07 in1.8 mm 0.00 in0.0 mm 0.08 in2.0 mm
12:36 AM 51.8°F11.0°C 47.4°F8.6°C 85% 5.0 mph NE8.0 kmh NE 8.0 mph12.9 kmh 29.58 in1001.7 mb 0.07 in1.8 mm 0.60 in15.2 mm 0.08 in2.0 mm
12:35 AM 51.8°F11.0°C 47.4°F8.6°C 85% 7.0 mph NE11.3 kmh NE 7.0 mph11.3 kmh 29.58 in1001.7 mb 0.06 in1.5 mm 0.00 in0.0 mm 0.07 in1.8 mm
12:34 AM 51.9°F11.1°C 47.5°F8.6°C 85% 6.0 mph NE9.7 kmh NE 7.0 mph11.3 kmh 29.58 in1001.7 mb 0.06 in1.5 mm 0.00 in0.0 mm 0.07 in1.8 mm
12:33 AM 51.9°F11.1°C 47.5°F8.6°C 85% 7.0 mph NE11.3 kmh NE 10.0 mph16.1 kmh 29.58 in1001.7 mb 0.06 in1.5 mm 0.60 in15.2 mm 0.07 in1.8 mm
12:32 AM 52.0°F11.1°C 47.6°F8.7°C 85% 7.0 mph NE11.3 kmh NE 9.0 mph14.5 kmh 29.58 in1001.7 mb 0.05 in1.3 mm 0.00 in0.0 mm 0.06 in1.5 mm
12:31 AM 52.1°F11.2°C 47.7°F8.7°C 85% 6.0 mph NE9.7 kmh NE 9.0 mph14.5 kmh 29.59 in1002.0 mb 0.05 in1.3 mm 0.60 in15.2 mm 0.06 in1.5 mm
12:30 AM 52.1°F11.2°C 47.7°F8.7°C 85% 7.0 mph NE11.3 kmh NE 10.0 mph16.1 kmh 29.58 in1001.7 mb 0.04 in1.0 mm 0.00 in0.0 mm 0.05 in1.3 mm
12:29 AM 52.1°F11.2°C 47.7°F8.7°C 85% 7.0 mph NE11.3 kmh NE 10.0 mph16.1 kmh 29.58 in1001.7 mb 0.05 in1.3 mm 0.00 in0.0 mm 0.05 in1.3 mm
12:28 AM 52.2°F11.2°C 47.8°F8.8°C 85% 10.0 mph NNE16.1 kmh NNE 10.0 mph16.1 kmh 29.59 in1002.0 mb 0.05 in1.3 mm 0.60 in15.2 mm 0.05 in1.3 mm
12:27 AM 52.2°F11.2°C 47.8°F8.8°C 85% 7.0 mph NE11.3 kmh NE 10.0 mph16.1 kmh 29.59 in1002.0 mb 0.04 in1.0 mm 0.00 in0.0 mm 0.04 in1.0 mm
12:26 AM 52.2°F11.2°C 47.8°F8.8°C 85% 6.0 mph NE9.7 kmh NE 8.0 mph12.9 kmh 29.59 in1002.0 mb 0.04 in1.0 mm 0.00 in0.0 mm 0.04 in1.0 mm
12:25 AM 52.2°F11.2°C 47.8°F8.8°C 85% 7.0 mph NNE11.3 kmh NNE 8.0 mph12.9 kmh 29.59 in1002.0 mb 0.04 in1.0 mm 0.60 in15.2 mm 0.04 in1.0 mm
12:24 AM 52.2°F11.2°C 47.5°F8.6°C 84% 5.0 mph NNE8.0 kmh NNE 9.0 mph14.5 kmh 29.59 in1002.0 mb 0.03 in0.8 mm 0.00 in0.0 mm 0.03 in0.8 mm
12:23 AM 52.2°F11.2°C 47.5°F8.6°C 84% 6.0 mph NE9.7 kmh NE 9.0 mph14.5 kmh 29.59 in1002.0 mb 0.03 in0.8 mm 0.00 in0.0 mm 0.03 in0.8 mm
12:22 AM 52.2°F11.2°C 47.5°F8.6°C 84% 6.0 mph NE9.7 kmh NE 9.0 mph14.5 kmh 29.59 in1002.0 mb 0.03 in0.8 mm 0.00 in0.0 mm 0.03 in0.8 mm
12:21 AM 52.3°F11.3°C 47.6°F8.7°C 84% 7.0 mph NE11.3 kmh NE 10.0 mph16.1 kmh 29.59 in1002.0 mb 0.03 in0.8 mm 0.00 in0.0 mm 0.03 in0.8 mm
12:20 AM 52.3°F11.3°C 47.6°F8.7°C 84% 9.0 mph NE14.5 kmh NE 14.0 mph22.5 kmh 29.59 in1002.0 mb 0.03 in0.8 mm 0.00 in0.0 mm 0.03 in0.8 mm
12:19 AM 52.4°F11.3°C 47.7°F8.7°C 84% 10.0 mph NE16.1 kmh NE 14.0 mph22.5 kmh 29.59 in1002.0 mb 0.03 in0.8 mm 0.00 in0.0 mm 0.03 in0.8 mm
12:18 AM 52.4°F11.3°C 47.7°F8.7°C 84% 11.0 mph NE17.7 kmh NE 14.0 mph22.5 kmh 29.59 in1002.0 mb 0.03 in0.8 mm 0.00 in0.0 mm 0.03 in0.8 mm
12:17 AM 52.5°F11.4°C 47.8°F8.8°C 84% 4.0 mph NNE6.4 kmh NNE 11.0 mph17.7 kmh 29.59 in1002.0 mb 0.03 in0.8 mm 0.00 in0.0 mm 0.03 in0.8 mm
12:16 AM 52.6°F11.4°C 47.9°F8.8°C 84% 11.0 mph N17.7 kmh N 11.0 mph17.7 kmh 29.59 in1002.0 mb 0.03 in0.8 mm 0.00 in0.0 mm 0.03 in0.8 mm
12:15 AM 52.6°F11.4°C 47.9°F8.8°C 84% 2.0 mph N3.2 kmh N 11.0 mph17.7 kmh 29.59 in1002.0 mb 0.03 in0.8 mm 0.60 in15.2 mm 0.03 in0.8 mm
12:14 AM 52.7°F11.5°C 48.0°F8.9°C 84% 6.0 mph N9.7 kmh N 11.0 mph17.7 kmh 29.59 in1002.0 mb 0.02 in0.5 mm 0.00 in0.0 mm 0.02 in0.5 mm
12:13 AM 52.7°F11.5°C 47.7°F8.7°C 83% 6.0 mph NNE9.7 kmh NNE 11.0 mph17.7 kmh 29.59 in1002.0 mb 0.02 in0.5 mm 0.00 in0.0 mm 0.02 in0.5 mm
12:12 AM 52.8°F11.6°C 47.8°F8.8°C 83% 4.0 mph NNE6.4 kmh NNE 11.0 mph17.7 kmh 29.58 in1001.7 mb 0.02 in0.5 mm 0.00 in0.0 mm 0.02 in0.5 mm
12:11 AM 52.9°F11.6°C 47.9°F8.8°C 83% 2.0 mph NE3.2 kmh NE 11.0 mph17.7 kmh 29.59 in1002.0 mb 0.02 in0.5 mm 0.00 in0.0 mm 0.02 in0.5 mm
12:10 AM 53.0°F11.7°C 48.0°F8.9°C 83% 7.0 mph N11.3 kmh N 11.0 mph17.7 kmh 29.59 in1002.0 mb 0.02 in0.5 mm 0.00 in0.0 mm 0.02 in0.5 mm
12:09 AM 53.0°F11.7°C 48.0°F8.9°C 83% 10.0 mph NNW16.1 kmh NNW 11.0 mph17.7 kmh 29.58 in1001.7 mb 0.02 in0.5 mm 0.60 in15.2 mm 0.02 in0.5 mm
12:08 AM 53.0°F11.7°C 48.0°F8.9°C 83% 6.0 mph NW9.7 kmh NW 6.0 mph9.7 kmh 29.58 in1001.7 mb 0.01 in0.3 mm 0.00 in0.0 mm 0.01 in0.3 mm
12:07 AM 53.1°F11.7°C 47.8°F8.8°C 82% 6.0 mph N9.7 kmh N 8.0 mph12.9 kmh 29.59 in1002.0 mb 0.01 in0.3 mm 0.00 in0.0 mm 0.01 in0.3 mm
12:06 AM 53.2°F11.8°C 47.9°F8.8°C 82% 6.0 mph N9.7 kmh N 8.0 mph12.9 kmh 29.59 in1002.0 mb 0.01 in0.3 mm 0.00 in0.0 mm 0.01 in0.3 mm
12:05 AM 53.2°F11.8°C 47.9°F8.8°C 82% 7.0 mph NNE11.3 kmh NNE 8.0 mph12.9 kmh 29.59 in1002.0 mb 0.01 in0.3 mm 0.00 in0.0 mm 0.01 in0.3 mm
12:04 AM 53.3°F11.8°C 48.0°F8.9°C 82% 6.0 mph N9.7 kmh N 8.0 mph12.9 kmh 29.59 in1002.0 mb 0.01 in0.3 mm 0.00 in0.0 mm 0.01 in0.3 mm
12:03 AM 53.3°F11.8°C 48.0°F8.9°C 82% 3.0 mph N4.8 kmh N 5.0 mph8.0 kmh 29.59 in1002.0 mb 0.01 in0.3 mm 0.00 in0.0 mm 0.01 in0.3 mm
12:02 AM 53.3°F11.8°C 47.6°F8.7°C 81% 5.0 mph NNE8.0 kmh NNE 9.0 mph14.5 kmh 29.59 in1002.0 mb 0.01 in0.3 mm 0.00 in0.0 mm 0.01 in0.3 mm
12:01 AM 53.4°F11.9°C 47.7°F8.7°C 81% 4.0 mph NNE6.4 kmh NNE 9.0 mph14.5 kmh 29.59 in1002.0 mb 0.01 in0.3 mm 0.00 in0.0 mm 0.01 in0.3 mm
12:00 AM 53.5°F11.9°C 47.8°F8.8°C 81% 3.0 mph NNE4.8 kmh NNE 9.0 mph14.5 kmh 29.59 in1002.0 mb 0.01 in0.3 mm 0.00 in0.0 mm 0.01 in0.3 mm